Time;durP1;ratioP1;P1;durP2;ratioP2;P2;SDS_P1;SDS_P2;PMS_P1;PMS_P2;Temp;Humidity;BMP_temperature;BMP_pressure;BME280_temperature;BME280_humidity;BME280_pressure;Samples;Min_cycle;Max_cycle;Signal;HPM_P1;HPM_P2
2022/01/27 00:07:35;;;;;;;8.23;5.78;;;;;;;0.87;94.20;98100.56;1692117;83;21022;-60
2022/01/27 00:10:29;;;;;;;7.50;5.97;;;;;;;0.88;94.27;98100.02;1703806;83;20964;-61
2022/01/27 00:12:42;;;;;;;6.08;5.25;;;;;;;0.87;94.25;98099.75;1692798;83;20983;-61
2022/01/27 00:15:12;;;;;;;7.45;5.72;;;;;;;0.86;94.30;98098.94;1680078;83;21408;-60
2022/01/27 00:17:47;;;;;;;6.17;4.75;;;;;;;0.83;94.50;98093.30;1706950;83;20987;-60
2022/01/27 00:20:13;;;;;;;6.22;4.87;;;;;;;0.81;94.53;98093.53;1716942;82;21007;-60
2022/01/27 00:22:40;;;;;;;5.67;4.58;;;;;;;0.78;94.61;98095.83;1702077;82;20876;-60
2022/01/27 00:25:08;;;;;;;5.78;5.15;;;;;;;0.79;94.96;98089.00;1721259;83;21412;-64
2022/01/27 00:27:35;;;;;;;5.20;4.22;;;;;;;0.82;95.03;98091.70;1705830;83;21404;-60
2022/01/27 00:30:04;;;;;;;5.55;4.70;;;;;;;0.83;94.96;98095.94;1701851;83;20944;-60
2022/01/27 00:32:32;;;;;;;5.33;4.08;;;;;;;0.85;95.05;98095.22;1700711;83;21633;-60
2022/01/27 00:34:59;;;;;;;5.47;4.12;;;;;;;0.89;95.05;98091.91;1692327;82;20900;-62
2022/01/27 00:37:26;;;;;;;6.03;4.42;;;;;;;0.92;95.10;98086.16;1692447;83;21422;-61
2022/01/27 00:39:53;;;;;;;5.97;4.70;;;;;;;0.93;95.15;98089.09;1692441;83;21121;-62
2022/01/27 00:42:20;;;;;;;5.97;4.80;;;;;;;0.96;95.11;98092.61;1704425;83;21503;-64
2022/01/27 00:44:47;;;;;;;7.95;5.20;;;;;;;0.96;95.13;98095.25;1705729;83;21084;-58
2022/01/27 00:47:14;;;;;;;7.15;4.90;;;;;;;0.96;95.17;98085.20;1701196;83;20999;-64
2022/01/27 00:49:41;;;;;;;5.55;4.53;;;;;;;0.97;95.26;98090.24;1684284;83;21443;-63
2022/01/27 00:52:14;;;;;;;6.28;5.30;;;;;;;0.98;95.37;98078.67;1691857;83;21218;-64
2022/01/27 00:54:37;;;;;;;6.90;5.67;;;;;;;1.00;95.36;98084.52;1696292;82;20940;-60
2022/01/27 00:57:12;;;;;;;6.42;4.97;;;;;;;0.98;95.38;98082.63;1690458;83;21454;-61
2022/01/27 00:59:59;;;;;;;7.20;5.05;;;;;;;0.95;95.62;98086.22;1685803;83;20948;-63
2022/01/27 01:02:29;;;;;;;6.58;5.17;;;;;;;0.92;95.63;98082.20;1671703;83;21414;-64
2022/01/27 01:04:51;;;;;;;6.53;5.53;;;;;;;0.91;95.83;98081.93;1692152;83;21217;-64
2022/01/27 01:07:15;;;;;;;8.00;5.72;;;;;;;0.89;95.81;98080.04;1696231;83;20947;-59
2022/01/27 01:15:17;;;;;;;6.80;5.55;;;;;;;0.83;96.18;98081.44;1701341;83;20960;-62
2022/01/27 01:17:54;;;;;;;7.33;6.15;;;;;;;0.82;96.36;98079.33;1697044;82;22497;-62
2022/01/27 01:31:14;;;;;;;8.18;6.35;;;;;;;0.86;97.12;98078.35;1707494;83;21119;-61
2022/01/27 01:33:40;;;;;;;10.10;8.05;;;;;;;0.86;97.21;98083.12;1690310;83;20892;-60
2022/01/27 01:36:15;;;;;;;10.15;7.60;;;;;;;0.83;97.33;98075.65;1691452;83;21447;-64
2022/01/27 01:38:43;;;;;;;10.63;8.00;;;;;;;0.84;97.68;98070.67;1700569;83;21034;-63
2022/01/27 01:41:10;;;;;;;11.95;8.20;;;;;;;0.87;97.98;98070.23;1682390;83;21046;-64
2022/01/27 01:43:37;;;;;;;11.75;8.70;;;;;;;0.89;97.85;98062.89;1678060;83;21121;-63
2022/01/27 01:46:03;;;;;;;11.57;8.63;;;;;;;0.93;97.78;98069.31;1683593;83;20983;-62
2022/01/27 01:48:30;;;;;;;13.18;8.50;;;;;;;0.95;97.75;98073.84;1684196;83;20964;-62
2022/01/27 01:50:57;;;;;;;10.05;8.60;;;;;;;0.95;97.78;98069.89;1694850;83;28157;-59
2022/01/27 01:53:24;;;;;;;10.18;7.72;;;;;;;0.93;97.84;98074.59;1703626;83;20964;-60
2022/01/27 01:55:50;;;;;;;10.03;8.38;;;;;;;0.93;97.89;98069.31;1679617;83;21221;-62
2022/01/27 01:58:17;;;;;;;12.50;8.73;;;;;;;0.90;97.95;98071.08;1691667;83;20980;-59
2022/01/27 02:00:44;;;;;;;10.68;8.40;;;;;;;0.88;97.91;98069.19;1702775;83;21073;-62
2022/01/27 02:03:11;;;;;;;9.85;7.67;;;;;;;0.85;97.89;98072.27;1705831;82;20964;-63
2022/01/27 02:05:45;;;;;;;12.00;7.75;;;;;;;0.84;98.04;98068.04;1693721;82;21502;-60
2022/01/27 02:19:23;;;;;;;10.50;8.70;;;;;;;0.90;97.73;98057.08;1696557;83;20990;-60
2022/01/27 02:21:55;;;;;;;11.53;8.98;;;;;;;0.88;97.73;98050.73;1706237;83;21706;-64
2022/01/27 02:24:24;;;;;;;11.12;8.35;;;;;;;0.88;97.69;98052.05;1705391;83;20881;-62
2022/01/27 02:26:51;;;;;;;9.55;7.53;;;;;;;0.89;97.58;98051.03;1703000;83;21069;-59
2022/01/27 02:29:19;;;;;;;10.10;8.20;;;;;;;0.89;97.54;98041.80;1679101;84;20945;-60
2022/01/27 02:31:49;;;;;;;10.63;8.15;;;;;;;0.88;97.53;98049.41;1696467;83;21419;-64
2022/01/27 02:34:16;;;;;;;10.10;8.13;;;;;;;0.88;97.58;98044.64;1708375;83;21717;-59
2022/01/27 02:36:43;;;;;;;10.45;8.25;;;;;;;0.88;97.54;98045.96;1698762;83;21015;-59
2022/01/27 02:39:10;;;;;;;7.97;6.87;;;;;;;0.88;97.54;98050.73;1699267;83;21035;-59
2022/01/27 02:41:36;;;;;;;9.78;7.87;;;;;;;0.88;97.57;98044.13;1696617;82;21542;-60
2022/01/27 02:44:03;;;;;;;7.55;6.20;;;;;;;0.88;97.59;98050.73;1701193;83;26507;-64
2022/01/27 02:46:38;;;;;;;8.50;6.00;;;;;;;0.88;97.42;98040.17;1701812;83;21084;-65
2022/01/27 02:49:05;;;;;;;7.30;5.53;;;;;;;0.86;97.50;98055.94;1679930;83;21019;-63
2022/01/27 02:51:37;;;;;;;7.00;5.65;;;;;;;0.82;97.36;98046.38;1714646;83;21011;-62
2022/01/27 02:54:04;;;;;;;7.22;6.08;;;;;;;0.79;97.40;98036.78;1716743;83;20861;-59
2022/01/27 02:56:32;;;;;;;7.20;5.97;;;;;;;0.76;97.40;98044.63;1698082;83;21490;-59
2022/01/27 02:58:58;;;;;;;7.58;5.90;;;;;;;0.72;97.35;98042.16;1685686;83;21095;-62
2022/01/27 03:01:26;;;;;;;6.00;5.25;;;;;;;0.69;97.09;98041.28;1703880;83;20923;-61
2022/01/27 03:03:53;;;;;;;7.08;5.20;;;;;;;0.69;97.30;98038.64;1702845;83;21066;-60
2022/01/27 03:06:20;;;;;;;7.03;5.42;;;;;;;0.73;97.27;98043.75;1705568;83;21008;-60
2022/01/27 03:08:47;;;;;;;6.78;5.35;;;;;;;0.73;97.12;98046.92;1694333;83;20940;-63
2022/01/27 03:11:18;;;;;;;5.67;5.05;;;;;;;0.72;97.26;98046.11;1697632;83;22229;-62
2022/01/27 03:13:44;;;;;;;5.72;4.60;;;;;;;0.73;97.30;98050.87;1709612;83;21020;-63
2022/01/27 03:16:11;;;;;;;5.53;4.50;;;;;;;0.75;97.42;98050.13;1708770;82;21007;-60
2022/01/27 03:18:38;;;;;;;6.97;5.72;;;;;;;0.77;97.38;98057.30;1684909;82;21496;-62
2022/01/27 03:21:05;;;;;;;8.15;6.25;;;;;;;0.74;97.33;98049.33;1701068;83;21003;-63
2022/01/27 03:23:33;;;;;;;6.87;5.47;;;;;;;0.71;97.32;98051.08;1692397;83;21128;-62
2022/01/27 03:25:59;;;;;;;8.60;6.37;;;;;;;0.69;97.30;98047.88;1701265;83;21456;-59
2022/01/27 03:28:28;;;;;;;8.93;6.55;;;;;;;0.69;97.33;98052.64;1698093;83;20935;-60
2022/01/27 03:30:54;;;;;;;9.30;7.37;;;;;;;0.69;97.39;98054.47;1708348;83;20936;-59
2022/01/27 03:33:21;;;;;;;8.58;6.72;;;;;;;0.69;97.36;98046.55;1706293;83;20987;-64
2022/01/27 03:35:49;;;;;;;9.00;7.05;;;;;;;0.71;97.35;98048.45;1719894;83;21126;-60
2022/01/27 03:38:15;;;;;;;10.03;7.28;;;;;;;0.73;97.45;98057.47;1697859;83;21597;-63
2022/01/27 03:40:43;;;;;;;11.53;8.40;;;;;;;0.72;97.37;98058.48;1689695;83;21008;-60
2022/01/27 03:43:11;;;;;;;10.72;8.60;;;;;;;0.71;97.54;98055.58;1711176;83;20983;-60
2022/01/27 03:45:38;;;;;;;9.25;7.33;;;;;;;0.71;97.38;98060.31;1704288;83;21006;-63
2022/01/27 03:48:06;;;;;;;10.28;7.72;;;;;;;0.67;97.33;98058.66;1696906;82;21076;-59
2022/01/27 03:50:33;;;;;;;9.70;7.72;;;;;;;0.66;97.40;98058.86;1681838;82;21439;-63
2022/01/27 03:53:00;;;;;;;10.28;8.30;;;;;;;0.66;97.31;98058.86;1704250;82;21018;-60
2022/01/27 03:55:27;;;;;;;10.80;8.55;;;;;;;0.66;97.30;98063.63;1690621;83;20908;-60
2022/01/27 03:57:54;;;;;;;10.18;7.70;;;;;;;0.64;97.03;98055.66;1699454;83;20928;-64
2022/01/27 04:00:20;;;;;;;50.43;37.53;;;;;;;0.65;97.08;98058.59;1688396;83;21093;-63
2022/01/27 04:02:56;;;;;;;9.23;7.40;;;;;;;0.66;96.90;98053.59;1681278;85;21411;-65
2022/01/27 04:05:19;;;;;;;11.22;8.80;;;;;;;0.66;96.86;98058.86;1708722;83;21455;-64
2022/01/27 04:07:46;;;;;;;10.70;8.23;;;;;;;0.66;96.80;98053.08;1717244;83;20908;-61
2022/01/27 04:10:14;;;;;;;10.03;7.83;;;;;;;0.68;96.65;98052.88;1699322;83;20963;-65
2022/01/27 04:12:40;;;;;;;10.93;7.55;;;;;;;0.69;96.71;98051.83;1686452;82;21116;-62
2022/01/27 04:15:09;;;;;;;11.35;7.65;;;;;;;0.71;96.67;98041.08;1706837;82;20995;-64
2022/01/27 04:17:36;;;;;;;9.28;7.65;;;;;;;0.69;96.65;98036.82;1702330;83;21491;-59
2022/01/27 04:20:04;;;;;;;9.53;6.95;;;;;;;0.71;96.59;98047.67;1707130;82;20991;-61
2022/01/27 04:22:32;;;;;;;9.00;7.05;;;;;;;0.70;96.59;98035.00;1700092;83;21079;-64
2022/01/27 04:24:59;;;;;;;8.38;7.00;;;;;;;0.69;96.49;98037.33;1685461;83;21748;-64
2022/01/27 04:27:31;;;;;;;10.75;6.87;;;;;;;0.68;96.39;98034.42;1709918;83;21483;-61
2022/01/27 04:29:54;;;;;;;8.45;6.17;;;;;;;0.68;96.35;98030.47;1697276;83;20925;-65
2022/01/27 04:32:27;;;;;;;6.50;5.83;;;;;;;0.70;96.44;98021.81;1709961;83;20951;-63
2022/01/27 04:34:52;;;;;;;8.93;6.40;;;;;;;0.74;96.46;98030.87;1700604;83;20932;-63
2022/01/27 04:37:22;;;;;;;7.97;6.53;;;;;;;0.77;96.20;98029.11;1687669;83;21132;-59
2022/01/27 04:39:58;;;;;;;10.60;6.28;;;;;;;0.77;95.98;98035.70;1699851;83;21484;-60
2022/01/27 04:42:26;;;;;;;7.85;5.80;;;;;;;0.75;95.88;98029.85;1690804;82;21087;-60
2022/01/27 04:44:56;;;;;;;9.20;6.22;;;;;;;0.72;95.85;98023.70;1685662;83;21494;-63
2022/01/27 04:47:26;;;;;;;8.73;6.90;;;;;;;0.70;95.91;98027.09;1687243;83;20920;-60
2022/01/27 04:49:47;;;;;;;9.38;6.70;;;;;;;0.72;95.98;98025.02;1700585;83;21740;-64
2022/01/27 04:52:14;;;;;;;9.75;6.62;;;;;;;0.71;95.84;98022.08;1712690;83;20911;-61
2022/01/27 04:54:58;;;;;;;7.65;5.97;;;;;;;0.67;95.89;98020.43;1706545;83;20939;-60
2022/01/27 04:57:09;;;;;;;8.03;6.53;;;;;;;0.68;95.95;98026.52;1683941;83;21024;-62
2022/01/27 04:59:40;;;;;;;8.38;6.12;;;;;;;0.70;95.94;98029.72;1702021;83;21558;-62
2022/01/27 05:02:11;;;;;;;8.60;6.62;;;;;;;0.72;95.98;98025.02;1700880;83;21488;-60
2022/01/27 05:04:40;;;;;;;10.45;7.10;;;;;;;0.71;95.84;98031.31;1691552;82;20869;-64
2022/01/27 05:09:30;;;;;;;6.67;5.62;;;;;;;0.65;95.92;98025.64;1714605;83;21024;-63
2022/01/27 05:12:11;;;;;;;8.83;5.90;;;;;;;0.60;95.79;98025.51;1701558;83;20979;-63
2022/01/27 05:14:28;;;;;;;7.28;5.92;;;;;;;0.60;95.98;98026.83;1707879;83;21748;-63
2022/01/27 05:16:57;;;;;;;7.28;5.22;;;;;;;0.57;95.97;98031.22;1711121;83;21451;-65
2022/01/27 05:19:23;;;;;;;7.45;5.20;;;;;;;0.57;95.91;98019.36;1704578;82;20974;-64
2022/01/27 05:21:51;;;;;;;8.48;5.95;;;;;;;0.55;95.99;98024.06;1702696;83;21018;-62
2022/01/27 05:24:19;;;;;;;7.37;5.78;;;;;;;0.52;96.04;98025.81;1706562;83;20979;-61
2022/01/27 05:26:46;;;;;;;8.75;6.45;;;;;;;0.51;96.18;98025.55;1707410;83;21184;-62
2022/01/27 05:29:13;;;;;;;7.53;5.75;;;;;;;0.49;96.20;98027.61;1707129;83;20943;-61
2022/01/27 05:31:40;;;;;;;7.72;5.28;;;;;;;0.49;96.21;98030.24;1700294;83;21078;-61
2022/01/27 05:34:07;;;;;;;8.20;6.30;;;;;;;0.50;96.21;98032.64;1689993;83;20995;-60
2022/01/27 05:36:34;;;;;;;9.23;5.95;;;;;;;0.49;96.15;98036.33;1685762;83;20975;-60
2022/01/27 05:39:02;;;;;;;7.83;6.10;;;;;;;0.47;96.68;98033.08;1708863;83;21098;-63
2022/01/27 05:41:29;;;;;;;8.80;5.42;;;;;;;0.51;96.60;98038.72;1694960;83;21108;-63
2022/01/27 05:43:56;;;;;;;8.33;5.90;;;;;;;0.46;96.33;98030.69;1687776;83;21436;-64
2022/01/27 05:46:24;;;;;;;8.85;5.83;;;;;;;0.43;96.41;98033.76;1685370;83;21430;-63
2022/01/27 05:48:52;;;;;;;7.50;5.78;;;;;;;0.45;96.50;98034.33;1708949;81;20982;-59
2022/01/27 05:51:19;;;;;;;7.67;5.55;;;;;;;0.45;96.47;98029.06;1686314;83;21010;-62
2022/01/27 05:53:47;;;;;;;6.72;5.35;;;;;;;0.46;96.14;98032.00;1701639;83;20896;-61
2022/01/27 05:56:13;;;;;;;6.10;4.87;;;;;;;0.46;96.05;98028.05;1680768;83;21281;-61
2022/01/27 05:58:40;;;;;;;8.55;6.08;;;;;;;0.47;96.01;98034.94;1696856;83;21400;-63
2022/01/27 06:01:06;;;;;;;8.43;5.40;;;;;;;0.46;95.92;98030.69;1697718;83;21027;-60
2022/01/27 06:03:33;;;;;;;6.87;6.03;;;;;;;0.46;95.98;98029.36;1700838;83;21104;-60
2022/01/27 06:06:00;;;;;;;6.60;5.22;;;;;;;0.49;95.94;98026.29;1697652;82;20968;-64
2022/01/27 06:08:29;;;;;;;7.25;5.05;;;;;;;0.50;95.67;98029.20;1704517;83;20904;-60
2022/01/27 06:10:56;;;;;;;8.48;5.40;;;;;;;0.49;95.87;98033.69;1707645;83;20944;-60
2022/01/27 06:13:24;;;;;;;8.73;5.55;;;;;;;0.51;95.76;98032.13;1715361;83;21030;-59
2022/01/27 06:15:56;;;;;;;7.83;6.00;;;;;;;0.53;95.76;98026.13;1695622;83;21125;-60
2022/01/27 06:18:23;;;;;;;7.47;5.37;;;;;;;0.52;95.54;98036.36;1682660;83;20900;-60
2022/01/27 06:20:52;;;;;;;6.15;4.83;;;;;;;0.53;95.47;98028.76;1693054;82;21027;-60
2022/01/27 06:23:19;;;;;;;6.58;5.30;;;;;;;0.51;95.45;98031.62;1683240;83;21451;-65
2022/01/27 06:25:47;;;;;;;7.47;5.37;;;;;;;0.52;95.38;98037.68;1698680;83;20979;-61
2022/01/27 06:28:14;;;;;;;7.70;5.70;;;;;;;0.53;95.25;98030.08;1697547;82;22072;-59
2022/01/27 06:30:42;;;;;;;7.35;5.85;;;;;;;0.52;95.30;98033.22;1696483;82;21034;-64
2022/01/27 06:33:09;;;;;;;6.67;4.70;;;;;;;0.52;95.25;98035.85;1689643;82;20980;-62
2022/01/27 06:35:36;;;;;;;6.60;5.15;;;;;;;0.53;94.87;98030.08;1710201;82;21085;-63
2022/01/27 06:38:04;;;;;;;7.80;5.58;;;;;;;0.54;94.93;98035.64;1685903;83;21016;-63
2022/01/27 06:40:31;;;;;;;7.25;5.30;;;;;;;0.53;94.82;98036.66;1703076;83;21134;-60
2022/01/27 06:42:58;;;;;;;8.20;5.85;;;;;;;0.49;94.91;98040.78;1712681;83;21034;-64
2022/01/27 06:45:25;;;;;;;6.78;5.05;;;;;;;0.49;94.96;98042.10;1699603;83;20971;-62
2022/01/27 06:47:52;;;;;;;7.72;5.67;;;;;;;0.48;94.86;98045.75;1702076;83;21577;-64
2022/01/27 06:50:19;;;;;;;7.67;6.40;;;;;;;0.49;94.86;98043.42;1694569;82;20928;-59
2022/01/27 06:52:45;;;;;;;7.67;5.40;;;;;;;0.47;94.76;98040.98;1697543;83;21121;-60
2022/01/27 06:55:13;;;;;;;8.73;6.10;;;;;;;0.47;94.73;98040.21;1697301;82;20957;-65
2022/01/27 06:57:40;;;;;;;7.95;6.03;;;;;;;0.46;94.84;98032.00;1709429;83;20971;-60
2022/01/27 07:00:09;;;;;;;8.18;6.10;;;;;;;0.46;94.85;98029.36;1697423;82;21011;-63
2022/01/27 07:02:35;;;;;;;8.30;6.20;;;;;;;0.48;94.70;98031.26;1699377;83;20937;-64
2022/01/27 07:05:04;;;;;;;8.93;6.00;;;;;;;0.48;94.53;98035.21;1702732;82;21122;-61
2022/01/27 07:07:31;;;;;;;8.45;5.97;;;;;;;0.48;94.62;98033.89;1703147;83;21136;-60
2022/01/27 07:09:58;;;;;;;9.53;6.62;;;;;;;0.52;94.47;98033.72;1697713;83;21408;-61
2022/01/27 07:12:25;;;;;;;8.00;6.28;;;;;;;0.53;94.24;98031.39;1699570;83;21117;-62
2022/01/27 07:14:54;;;;;;;7.95;6.00;;;;;;;0.51;94.16;98051.91;1708277;81;21110;-61
2022/01/27 07:17:21;;;;;;;9.50;6.80;;;;;;;0.50;94.19;98031.83;1702440;81;21127;-64
2022/01/27 07:19:48;;;;;;;7.55;6.00;;;;;;;0.50;94.16;98026.56;1715361;81;21107;-65
2022/01/27 07:22:15;;;;;;;9.53;6.65;;;;;;;0.48;94.18;98026.80;1706343;82;21524;-61
2022/01/27 07:24:42;;;;;;;10.55;6.85;;;;;;;0.47;94.26;98017.81;1700181;82;21123;-59
2022/01/27 07:27:09;;;;;;;11.22;5.92;;;;;;;0.47;94.24;98017.81;1698188;82;21534;-64
2022/01/27 07:29:36;;;;;;;8.23;5.42;;;;;;;0.49;94.10;98021.02;1700262;83;21878;-59
2022/01/27 07:32:04;;;;;;;8.53;6.05;;;;;;;0.50;94.11;98016.02;1706370;82;21053;-60
2022/01/27 07:34:30;;;;;;;8.40;5.75;;;;;;;0.53;94.07;98015.58;1700060;83;21412;-62
2022/01/27 07:37:00;;;;;;;9.15;6.72;;;;;;;0.56;94.01;98011.19;1718598;82;20897;-61
2022/01/27 07:39:28;;;;;;;9.45;6.47;;;;;;;0.58;93.85;98010.44;1719219;82;21626;-60
2022/01/27 07:41:57;;;;;;;9.93;7.08;;;;;;;0.60;93.77;98009.19;1688808;82;21270;-66
2022/01/27 07:44:27;;;;;;;10.40;7.05;;;;;;;0.59;93.57;98010.20;1718641;81;21178;-60
2022/01/27 07:46:55;;;;;;;8.85;6.58;;;;;;;0.58;93.60;97997.26;1707759;82;21181;-59
2022/01/27 07:49:23;;;;;;;10.43;6.58;;;;;;;0.59;93.64;98012.84;1709176;81;21037;-59
2022/01/27 07:51:50;;;;;;;9.13;6.55;;;;;;;0.60;93.55;98005.73;1710085;82;21476;-60
2022/01/27 07:54:17;;;;;;;8.10;6.53;;;;;;;0.61;93.57;98004.72;1709132;83;21214;-59
2022/01/27 07:56:45;;;;;;;9.20;6.55;;;;;;;0.65;93.58;98017.22;1715121;81;21389;-57
2022/01/27 07:59:11;;;;;;;9.05;7.10;;;;;;;0.66;93.39;98000.36;1699614;81;20989;-60
2022/01/27 08:01:38;;;;;;;8.90;6.90;;;;;;;0.67;93.35;98003.80;1715501;82;20949;-61
2022/01/27 08:04:05;;;;;;;9.35;6.42;;;;;;;0.65;93.25;98000.59;1712976;81;21020;-58
2022/01/27 08:06:32;;;;;;;8.43;6.25;;;;;;;0.64;93.08;98011.64;1708266;82;21122;-60
2022/01/27 08:08:59;;;;;;;7.67;6.40;;;;;;;0.66;93.01;98010.09;1711468;81;21121;-60
2022/01/27 08:11:25;;;;;;;10.43;7.33;;;;;;;0.66;93.13;98008.27;1691647;81;21546;-60
2022/01/27 08:13:52;;;;;;;8.05;6.28;;;;;;;0.71;93.03;98010.76;1717548;82;21080;-60
2022/01/27 08:16:19;;;;;;;9.78;6.40;;;;;;;0.71;92.79;98022.08;1709751;82;21156;-57
2022/01/27 08:18:46;;;;;;;12.43;7.03;;;;;;;0.70;92.89;98011.27;1702461;82;21858;-61
2022/01/27 08:21:13;;;;;;;11.83;7.47;;;;;;;0.69;92.82;98021.52;1701564;81;21049;-59
2022/01/27 08:23:42;;;;;;;9.15;7.22;;;;;;;0.66;92.71;98018.81;1706257;83;21110;-61
2022/01/27 08:26:12;;;;;;;9.15;6.47;;;;;;;0.64;92.75;98018.75;1704551;83;20958;-59
2022/01/27 08:28:48;;;;;;;7.87;6.53;;;;;;;0.62;92.82;98029.53;1697038;82;20969;-61
2022/01/27 08:31:09;;;;;;;11.28;6.90;;;;;;;0.63;92.80;98030.34;1709874;81;20986;-59
2022/01/27 08:33:39;;;;;;;10.63;7.47;;;;;;;0.65;92.77;98023.00;1733535;81;21001;-60
2022/01/27 08:36:05;;;;;;;10.80;7.25;;;;;;;0.68;92.80;98019.92;1693372;82;21086;-58
2022/01/27 08:38:36;;;;;;;10.25;7.15;;;;;;;0.70;92.72;98029.72;1695945;82;20997;-58
2022/01/27 08:41:02;;;;;;;9.10;7.05;;;;;;;0.74;92.61;98019.00;1702515;82;20956;-62
2022/01/27 08:43:29;;;;;;;9.38;7.15;;;;;;;0.78;92.60;98015.41;1679394;82;21146;-64
2022/01/27 08:45:59;;;;;;;10.05;7.05;;;;;;;0.80;92.39;98014.66;1675193;83;21054;-59
2022/01/27 08:48:27;;;;;;;8.98;6.62;;;;;;;0.82;92.35;98013.92;1695690;83;20941;-64
2022/01/27 08:51:01;;;;;;;10.68;7.10;;;;;;;0.85;92.30;98009.52;1705546;82;20969;-57
2022/01/27 08:53:22;;;;;;;8.25;7.10;;;;;;;0.87;92.08;98018.81;1683729;83;21092;-60
2022/01/27 08:55:49;;;;;;;10.43;7.65;;;;;;;0.85;92.02;98013.48;1700314;83;21356;-61
2022/01/27 08:58:16;;;;;;;11.33;7.60;;;;;;;0.83;92.02;98017.64;1707562;82;20974;-58
2022/01/27 09:00:44;;;;;;;9.60;7.10;;;;;;;0.84;92.01;98017.13;1707013;82;21454;-61
2022/01/27 09:03:11;;;;;;;9.55;7.40;;;;;;;0.84;91.67;98019.26;1713804;82;21052;-58
2022/01/27 09:05:38;;;;;;;8.78;6.90;;;;;;;0.85;91.72;98018.21;1705312;80;20897;-60
2022/01/27 09:08:05;;;;;;;8.33;6.78;;;;;;;0.86;91.81;98023.78;1700849;82;21123;-63
2022/01/27 09:10:33;;;;;;;9.95;7.37;;;;;;;0.88;91.69;98014.31;1690054;80;20989;-59
2022/01/27 09:15:36;;;;;;;20.92;14.25;;;;;;;0.87;91.35;98020.13;1674505;84;20916;-59
2022/01/27 09:18:05;;;;;;;9.15;6.20;;;;;;;0.86;91.38;98015.88;1694261;82;20981;-62
2022/01/27 09:20:34;;;;;;;11.90;7.40;;;;;;;0.91;91.37;98013.36;1690087;83;21472;-58
2022/01/27 09:23:02;;;;;;;12.70;7.95;;;;;;;0.97;91.33;98019.03;1720459;82;20909;-60
2022/01/27 09:25:40;;;;;;;11.83;8.70;;;;;;;0.95;90.89;98013.19;1714780;82;21426;-61
2022/01/27 09:28:02;;;;;;;223.90;35.73;;;;;;;0.94;91.00;98015.55;1699393;82;21195;-64
2022/01/27 09:30:31;;;;;;;18.30;11.43;;;;;;;0.95;90.94;98017.14;1707762;81;21036;-60
2022/01/27 09:32:58;;;;;;;11.33;7.30;;;;;;;0.93;90.72;98016.56;1688341;82;21120;-61
2022/01/27 09:35:27;;;;;;;55.60;10.68;;;;;;;0.92;90.56;98012.31;1706467;82;21465;-60
2022/01/27 09:37:56;;;;;;;10.70;6.90;;;;;;;0.88;90.47;98011.17;1691236;83;20914;-59
2022/01/27 09:40:24;;;;;;;281.98;32.98;;;;;;;0.86;90.27;98007.96;1702499;81;21033;-61
2022/01/27 09:42:53;;;;;;;8.23;6.22;;;;;;;0.84;90.41;98007.39;1704383;83;21112;-59
2022/01/27 09:45:24;;;;;;;9.53;6.97;;;;;;;0.84;90.48;97996.03;1706681;81;21838;-60
2022/01/27 09:47:56;;;;;;;8.23;6.28;;;;;;;0.90;90.40;98003.02;1697105;82;21082;-61
2022/01/27 09:50:45;;;;;;;8.48;6.83;;;;;;;0.94;90.33;98002.36;1693812;82;21038;-57
2022/01/27 09:52:55;;;;;;;7.12;5.33;;;;;;;0.97;90.12;97994.48;1682406;82;21086;-61
2022/01/27 09:55:23;;;;;;;9.85;5.10;;;;;;;0.95;89.57;97998.67;1698498;83;21048;-60
2022/01/27 09:57:58;;;;;;;8.53;5.62;;;;;;;0.94;89.75;97998.41;1693486;81;21240;-61
2022/01/27 10:00:26;;;;;;;8.08;6.37;;;;;;;0.93;89.29;98003.38;1674799;83;20926;-58
2022/01/27 10:03:13;;;;;;;8.63;6.08;;;;;;;0.94;89.57;97995.77;1688899;83;21126;-59
2022/01/27 10:05:42;;;;;;;8.10;6.12;;;;;;;1.00;89.47;97996.67;1684602;83;21494;-62
2022/01/27 10:08:15;;;;;;;8.10;5.70;;;;;;;1.06;89.48;97984.69;1654324;85;21141;-62
2022/01/27 10:10:48;;;;;;;11.80;6.42;;;;;;;1.15;89.53;97975.41;1675880;83;21042;-60
2022/01/27 10:13:37;;;;;;;11.60;6.53;;;;;;;1.28;89.46;97976.48;1637757;85;21128;-63
2022/01/27 10:16:07;;;;;;;9.70;6.70;;;;;;;1.35;88.89;97975.84;1659830;84;21168;-58
2022/01/27 10:18:44;;;;;;;10.08;7.08;;;;;;;1.31;88.17;97977.34;1633889;84;21623;-60
2022/01/27 10:21:13;;;;;;;10.15;6.83;;;;;;;1.26;88.22;97960.08;1666655;83;20943;-59
2022/01/27 10:23:44;;;;;;;9.08;6.35;;;;;;;1.22;88.26;97965.55;1640936;85;21119;-59
2022/01/27 10:26:22;;;;;;;9.83;6.83;;;;;;;1.18;88.22;97967.02;1692569;83;21090;-58
2022/01/27 10:29:14;;;;;;;11.05;7.22;;;;;;;1.14;88.46;97954.52;1672406;83;21172;-61
2022/01/27 10:31:42;;;;;;;9.38;7.15;;;;;;;1.15;88.45;97947.71;1674018;83;21140;-62
2022/01/27 10:34:11;;;;;;;10.75;7.10;;;;;;;1.09;88.44;97945.98;1673448;83;21179;-58
2022/01/27 10:36:53;;;;;;;10.85;7.00;;;;;;;1.09;88.59;97940.70;1653592;84;21728;-62
2022/01/27 10:39:29;;;;;;;10.68;7.62;;;;;;;1.14;88.81;97938.18;1673356;83;21068;-63
2022/01/27 10:42:08;;;;;;;10.45;7.03;;;;;;;1.21;88.63;97930.95;1700814;82;21683;-65
2022/01/27 10:44:44;;;;;;;10.15;7.80;;;;;;;1.27;88.56;97922.63;1680652;82;21128;-67
2022/01/27 10:47:20;;;;;;;11.30;8.00;;;;;;;1.28;88.57;97921.06;1640616;85;21011;-66
2022/01/27 10:49:51;;;;;;;9.90;7.20;;;;;;;1.27;88.58;97920.77;1674138;83;21193;-61
2022/01/27 10:52:33;;;;;;;9.80;8.13;;;;;;;1.29;88.58;97924.52;1674791;82;21126;-64
2022/01/27 10:54:57;;;;;;;13.03;8.35;;;;;;;1.33;88.66;97926.97;1683707;83;21641;-66
2022/01/27 10:57:25;;;;;;;12.00;8.33;;;;;;;1.30;88.46;97932.19;1661616;83;21452;-61
2022/01/27 11:00:15;;;;;;;13.70;8.65;;;;;;;1.22;88.52;97923.33;1689237;82;21506;-61
2022/01/27 11:02:54;;;;;;;9.98;7.85;;;;;;;1.19;88.71;97926.42;1696904;82;21126;-61
2022/01/27 11:05:27;;;;;;;12.13;8.25;;;;;;;1.16;88.78;97918.16;1699021;81;21035;-66
2022/01/27 11:07:55;;;;;;;11.70;8.33;;;;;;;1.15;88.93;97918.69;1695758;82;21055;-66
2022/01/27 11:10:23;;;;;;;11.48;8.63;;;;;;;1.14;88.87;97910.98;1704083;81;21044;-64
2022/01/27 11:12:52;;;;;;;13.13;8.80;;;;;;;1.14;88.98;97901.25;1682903;83;21092;-63
2022/01/27 11:15:21;;;;;;;13.03;8.18;;;;;;;1.13;88.95;97902.27;1674848;83;21113;-60
2022/01/27 11:17:50;;;;;;;12.45;8.85;;;;;;;1.13;88.85;97892.26;1683389;82;21062;-65
2022/01/27 11:20:33;;;;;;;9.58;8.20;;;;;;;1.09;89.01;97905.09;1698641;81;21119;-58
2022/01/27 11:28:03;;;;;;;9.65;7.78;;;;;;;1.00;88.94;97897.25;1688802;81;22356;-61
2022/01/27 11:30:57;;;;;;;12.58;8.85;;;;;;;1.02;88.98;97891.23;1709021;81;20878;-62
2022/01/27 11:33:31;;;;;;;13.20;8.83;;;;;;;1.08;89.00;97892.95;1691848;81;20980;-64
2022/01/27 11:36:14;;;;;;;10.57;8.83;;;;;;;1.07;88.87;97884.74;1716292;81;21108;-62
2022/01/27 11:38:43;;;;;;;11.83;8.60;;;;;;;1.06;88.94;97881.03;1699021;82;21572;-62
2022/01/27 11:41:39;;;;;;;13.68;10.05;;;;;;;1.05;88.94;97885.50;1693560;81;21122;-61
2022/01/27 11:44:36;;;;;;;13.35;10.18;;;;;;;1.02;89.08;97887.27;1690555;82;21525;-64
2022/01/27 11:47:32;;;;;;;13.78;10.38;;;;;;;1.03;89.17;97886.25;1696052;80;20984;-63
2022/01/27 11:50:07;;;;;;;16.35;10.00;;;;;;;1.03;89.26;97868.30;1709553;81;21118;-67
2022/01/27 11:52:50;;;;;;;14.07;9.95;;;;;;;1.04;89.38;97860.65;1699663;81;21120;-61
2022/01/27 11:55:43;;;;;;;15.23;11.18;;;;;;;1.06;89.32;97887.08;1688545;81;21128;-58
2022/01/27 11:58:37;;;;;;;15.48;11.45;;;;;;;1.08;89.42;97871.84;1699489;82;21077;-65
2022/01/27 12:01:10;;;;;;;17.98;11.53;;;;;;;1.10;89.33;97868.45;1723270;82;21179;-62
2022/01/27 12:03:39;;;;;;;14.85;10.93;;;;;;;1.06;89.35;97862.02;1679637;83;20971;-64
2022/01/27 12:06:21;;;;;;;13.98;11.40;;;;;;;1.04;89.40;97854.86;1697237;82;21578;-65
2022/01/27 12:08:48;;;;;;;16.75;11.70;;;;;;;1.03;89.44;97851.95;1673917;83;21383;-59
2022/01/27 12:11:46;;;;;;;18.85;13.05;;;;;;;1.05;89.65;97853.03;1701234;81;20965;-61
2022/01/27 12:14:17;;;;;;;16.23;11.75;;;;;;;1.06;89.59;97853.33;1690058;81;21516;-65
2022/01/27 12:19:19;;;;;;;18.27;13.40;;;;;;;0.98;89.78;97859.77;1695095;81;21432;-60
2022/01/27 12:22:00;;;;;;;19.60;13.30;;;;;;;0.96;89.99;97864.47;1695281;82;21129;-59
2022/01/27 12:24:29;;;;;;;18.73;14.28;;;;;;;0.97;90.09;97851.55;1704320;82;21065;-59
2022/01/27 12:27:10;;;;;;;22.70;13.68;;;;;;;0.95;90.18;97843.08;1693814;82;21158;-60
2022/01/27 12:29:41;;;;;;;21.17;14.35;;;;;;;0.94;90.22;97841.48;1682968;83;21062;-62
2022/01/27 12:32:12;;;;;;;17.32;13.28;;;;;;;0.95;90.35;97839.12;1695775;80;21012;-59
2022/01/27 12:34:41;;;;;;;19.17;14.00;;;;;;;0.99;90.36;97834.20;1695476;82;21046;-62
2022/01/27 12:37:10;;;;;;;20.43;15.43;;;;;;;0.99;90.46;97845.52;1658845;82;21034;-59